createdAt,value
2017-09-19T00:03:35.127Z,53.19
2017-09-19T00:07:39.337Z,53.19
2017-09-19T00:11:43.163Z,53.20
2017-09-19T00:15:47.377Z,53.23
2017-09-19T00:19:51.206Z,53.21
2017-09-19T00:23:55.412Z,53.20
2017-09-19T00:27:59.247Z,53.22
2017-09-19T00:32:03.512Z,53.20
2017-09-19T00:36:07.291Z,53.22
2017-09-19T00:40:11.517Z,53.21
2017-09-19T00:44:16.061Z,53.22
2017-09-19T00:48:19.501Z,53.22
2017-09-19T00:52:23.262Z,53.24
2017-09-19T00:56:27.477Z,53.23
2017-09-19T01:00:32.013Z,53.26
2017-09-19T01:04:36.222Z,53.24
2017-09-19T01:08:40.059Z,53.21
2017-09-19T01:12:44.335Z,53.22
2017-09-19T01:16:48.097Z,53.25
2017-09-19T01:20:52.323Z,53.23
2017-09-19T01:24:56.858Z,53.23
2017-09-19T01:29:01.153Z,53.24
2017-09-19T01:33:04.902Z,53.22
2017-09-19T01:37:09.155Z,53.23
2017-09-19T01:41:12.968Z,53.22
2017-09-19T01:45:16.455Z,53.22
2017-09-19T01:49:20.269Z,53.21
2017-09-19T01:53:24.493Z,53.23
2017-09-19T01:57:29.015Z,53.23
2017-09-19T02:01:33.239Z,53.22
2017-09-19T02:05:37.883Z,53.24
2017-09-19T02:09:42.113Z,53.24
2017-09-19T02:13:46.691Z,53.26
2017-09-19T02:17:50.182Z,53.26
2017-09-19T02:21:54.168Z,53.24
2017-09-19T02:25:58.406Z,53.25
2017-09-19T02:30:02.211Z,53.26
2017-09-19T02:34:06.468Z,53.24
2017-09-19T02:38:10.247Z,53.25
2017-09-19T02:42:14.532Z,53.26
2017-09-19T02:46:18.392Z,53.25
2017-09-19T02:50:22.624Z,53.26
2017-09-19T02:54:26.436Z,53.26
2017-09-19T02:58:30.659Z,53.25
2017-09-19T03:02:35.291Z,53.24
2017-09-19T03:06:39.523Z,53.23
2017-09-19T03:10:44.042Z,53.25
2017-09-19T03:14:48.254Z,53.25
2017-09-19T03:18:52.078Z,53.24
2017-09-19T03:22:56.586Z,53.23
2017-09-19T03:27:00.327Z,53.24
2017-09-19T03:31:04.547Z,53.23
2017-09-19T03:35:09.082Z,53.25
2017-09-19T03:39:13.334Z,53.25
2017-09-19T03:43:17.135Z,53.26
2017-09-19T03:47:20.591Z,53.26
2017-09-19T03:51:24.453Z,53.26
2017-09-19T03:55:28.670Z,53.26
2017-09-19T03:59:33.217Z,53.24
2017-09-19T04:03:37.511Z,53.26
2017-09-19T04:07:42.792Z,53.25
2017-09-19T04:11:47.014Z,53.25
2017-09-19T04:15:51.650Z,53.25
2017-09-19T04:19:55.859Z,53.24
2017-09-19T04:23:59.692Z,53.24
2017-09-19T04:28:03.897Z,53.25
2017-09-19T04:32:07.630Z,53.24
2017-09-19T04:36:11.851Z,53.24
2017-09-19T04:40:16.478Z,53.24
2017-09-19T04:44:20.699Z,53.24
2017-09-19T04:48:25.238Z,53.22
2017-09-19T04:52:29.543Z,53.23
2017-09-19T04:56:33.310Z,53.21
2017-09-19T05:00:36.886Z,53.22
2017-09-19T05:04:40.806Z,53.23
2017-09-19T05:08:45.035Z,53.23
2017-09-19T05:12:49.675Z,53.23
2017-09-19T05:16:53.130Z,53.23
2017-09-19T05:20:57.003Z,53.22
2017-09-19T05:25:00.465Z,53.20
2017-09-19T05:29:04.219Z,53.19
2017-09-19T05:33:08.430Z,53.17
2017-09-19T05:37:12.979Z,53.18
2017-09-19T05:41:16.437Z,53.18
2017-09-19T05:45:20.198Z,53.16
2017-09-19T05:49:23.652Z,53.17
2017-09-19T05:53:27.419Z,53.16
2017-09-19T05:57:31.675Z,53.12
2017-09-19T06:01:35.659Z,53.05
2017-09-19T06:05:39.883Z,53.00
2017-09-19T06:09:44.422Z,52.94
2017-09-19T06:13:48.687Z,52.86
2017-09-19T06:17:52.454Z,52.60
2017-09-19T06:21:56.671Z,52.48
2017-09-19T06:26:01.318Z,52.40
2017-09-19T06:30:05.538Z,52.29
2017-09-19T06:34:10.175Z,52.34
2017-09-19T06:38:14.391Z,52.27
2017-09-19T06:42:19.046Z,52.32
2017-09-19T06:46:22.506Z,52.25
2017-09-19T06:50:26.259Z,52.20
2017-09-19T06:54:30.477Z,52.21
2017-09-19T06:58:35.010Z,52.27
2017-09-19T07:02:39.230Z,52.21
2017-09-19T07:06:43.772Z,52.29
2017-09-19T07:10:48.039Z,52.30
2017-09-19T07:14:52.020Z,52.30
2017-09-19T07:18:56.238Z,52.34
2017-09-19T07:22:59.977Z,52.32
2017-09-19T07:27:03.478Z,52.33
2017-09-19T07:31:07.255Z,52.32
2017-09-19T07:35:10.706Z,52.32
2017-09-19T07:39:14.495Z,52.34
2017-09-19T07:43:18.710Z,52.34
2017-09-19T07:47:22.766Z,52.37
2017-09-19T07:51:26.224Z,52.38
2017-09-19T07:55:30.068Z,52.36
2017-09-19T07:59:34.287Z,52.35
2017-09-19T08:03:38.864Z,52.33
2017-09-19T08:07:42.321Z,52.27
2017-09-19T08:11:46.859Z,52.22
2017-09-19T08:15:51.075Z,52.22
2017-09-19T08:19:55.609Z,52.20
2017-09-19T08:23:59.849Z,52.17
2017-09-19T08:28:04.387Z,52.13
2017-09-19T08:32:07.834Z,52.05
2017-09-19T08:36:11.595Z,52.05
2017-09-19T08:40:15.818Z,52.06
2017-09-19T08:44:20.365Z,52.06
2017-09-19T08:48:24.579Z,52.06
2017-09-19T08:52:29.110Z,52.06
2017-09-19T08:56:33.330Z,52.05
2017-09-19T09:00:37.865Z,52.05
2017-09-19T09:04:42.078Z,52.01
2017-09-19T09:08:46.621Z,51.95
2017-09-19T09:12:50.852Z,51.99
2017-09-19T09:16:55.382Z,51.99
2017-09-19T09:20:59.604Z,52.00
2017-09-19T09:25:04.135Z,52.05
2017-09-19T09:29:08.359Z,52.07
2017-09-19T09:33:12.891Z,52.08
2017-09-19T09:37:17.118Z,52.17
2017-09-19T09:41:21.655Z,52.24
2017-09-19T09:45:25.868Z,52.26
2017-09-19T09:49:30.411Z,52.26
2017-09-19T09:53:34.660Z,52.27
2017-09-19T09:57:38.454Z,52.29
2017-09-19T10:01:42.694Z,52.27
2017-09-19T10:05:46.445Z,52.21
2017-09-19T10:09:49.934Z,52.16
2017-09-19T10:13:53.718Z,52.12
2017-09-19T10:17:57.927Z,52.19
2017-09-19T10:22:02.467Z,52.22
2017-09-19T10:26:06.687Z,52.25
2017-09-19T10:30:11.227Z,52.31
2017-09-19T10:34:15.434Z,52.39
2017-09-19T10:38:19.271Z,52.36
2017-09-19T10:42:23.482Z,52.35
2017-09-19T10:46:28.025Z,52.40
2017-09-19T10:50:32.258Z,52.36
2017-09-19T10:54:36.886Z,52.32
2017-09-19T10:58:41.230Z,52.30
2017-09-19T11:02:45.027Z,52.31
2017-09-19T11:06:49.264Z,52.33
2017-09-19T11:10:53.085Z,52.31
2017-09-19T11:14:56.534Z,52.32
2017-09-19T11:19:00.291Z,52.34
2017-09-19T11:23:04.552Z,52.38
2017-09-19T11:27:08.410Z,52.41
2017-09-19T11:31:11.875Z,52.39
2017-09-19T11:35:15.659Z,52.28
2017-09-19T11:39:19.879Z,52.25
2017-09-19T11:43:24.407Z,52.21
2017-09-19T11:47:28.651Z,52.18
2017-09-19T11:51:32.442Z,52.16
2017-09-19T11:55:36.667Z,52.16
2017-09-19T11:59:41.211Z,52.12
2017-09-19T12:03:45.475Z,52.08
2017-09-19T12:07:49.251Z,52.08
2017-09-19T12:11:53.451Z,52.06
2017-09-19T12:15:57.286Z,52.04
2017-09-19T12:20:01.551Z,52.02
2017-09-19T12:24:05.427Z,52.01
2017-09-19T12:28:09.662Z,52.01
2017-09-19T12:32:14.191Z,52.02
2017-09-19T12:36:18.416Z,52.03
2017-09-19T12:40:23.051Z,52.03
2017-09-19T12:44:27.258Z,52.03
2017-09-19T12:48:30.998Z,52.03
2017-09-19T12:52:34.456Z,52.02
2017-09-19T12:56:38.298Z,52.06
2017-09-19T13:00:42.517Z,52.09
2017-09-19T13:04:46.350Z,52.10
2017-09-19T13:08:50.575Z,52.10
2017-09-19T13:12:55.210Z,52.11
2017-09-19T13:16:59.450Z,52.13
2017-09-19T13:21:03.242Z,52.14
2017-09-19T13:25:07.471Z,52.14
2017-09-19T13:29:12.084Z,52.15
2017-09-19T13:33:33.444Z,52.15
2017-09-19T13:37:37.255Z,52.13
2017-09-19T13:41:41.480Z,52.12
2017-09-19T13:45:45.397Z,52.13
2017-09-19T13:49:49.635Z,52.13
2017-09-19T13:53:53.443Z,52.16
2017-09-19T13:57:57.095Z,52.19
2017-09-19T14:02:00.858Z,52.20
2017-09-19T14:06:05.088Z,52.20
2017-09-19T14:10:09.719Z,52.21
2017-09-19T14:14:13.943Z,52.21
2017-09-19T14:18:18.476Z,52.20
2017-09-19T14:22:22.692Z,52.20
2017-09-19T14:26:27.226Z,52.21
2017-09-19T14:30:31.451Z,52.27
2017-09-19T14:34:36.004Z,52.34
2017-09-19T14:38:39.459Z,52.38
2017-09-19T14:42:43.222Z,52.43
2017-09-19T14:46:46.684Z,52.45
2017-09-19T14:50:50.531Z,52.47
2017-09-19T14:54:56.397Z,52.50
2017-09-19T14:59:01.027Z,52.49
2017-09-19T15:03:05.391Z,52.48
2017-09-19T15:07:09.176Z,52.47
2017-09-19T15:11:13.406Z,52.49
2017-09-19T15:15:17.222Z,52.46
2017-09-19T15:19:20.859Z,52.49
2017-09-19T15:23:24.744Z,52.50
2017-09-19T15:27:28.975Z,52.52
2017-09-19T15:31:32.894Z,52.53
2017-09-19T15:35:36.423Z,52.55
2017-09-19T15:39:40.214Z,52.56
2017-09-19T15:43:44.455Z,52.57
2017-09-19T15:47:48.242Z,52.56
2017-09-19T15:51:52.464Z,52.56
2017-09-19T15:55:57.020Z,52.54
2017-09-19T16:00:00.471Z,52.56
2017-09-19T16:04:04.223Z,52.56
2017-09-19T16:08:08.591Z,52.56
2017-09-19T16:12:12.471Z,52.57
2017-09-19T16:16:16.765Z,52.61
2017-09-19T16:20:20.627Z,52.63
2017-09-19T16:24:24.085Z,52.67
2017-09-19T16:28:27.846Z,52.70
2017-09-19T16:32:31.300Z,52.71
2017-09-19T16:36:35.058Z,52.73
2017-09-19T16:40:39.324Z,52.75
2017-09-19T16:44:43.204Z,52.76
2017-09-19T16:48:47.450Z,52.77
2017-09-19T16:52:51.243Z,52.80
2017-09-19T16:56:55.468Z,52.82
2017-09-19T17:01:00.821Z,52.82
2017-09-19T17:05:04.288Z,52.83
2017-09-19T17:09:08.133Z,52.88
2017-09-19T17:13:12.370Z,52.89
2017-09-19T17:17:17.003Z,52.91
2017-09-19T17:21:21.225Z,52.93
2017-09-19T17:25:25.864Z,52.92
2017-09-19T17:29:30.125Z,52.96
2017-09-19T17:33:33.914Z,52.98
2017-09-19T17:37:37.376Z,52.96
2017-09-19T17:41:41.915Z,53.04
2017-09-19T17:45:45.410Z,53.03
2017-09-19T17:49:49.291Z,53.01
2017-09-19T17:53:52.813Z,53.08
2017-09-19T17:57:56.695Z,53.10
2017-09-19T18:02:00.919Z,53.09
2017-09-19T18:06:04.702Z,53.08
2017-09-19T18:10:08.533Z,53.10
2017-09-19T18:14:13.084Z,53.09
2017-09-19T18:18:16.539Z,53.13
2017-09-19T18:22:20.401Z,53.16
2017-09-19T18:26:24.594Z,53.16
2017-09-19T18:30:28.461Z,53.17
2017-09-19T18:34:31.908Z,53.17
2017-09-19T18:38:35.764Z,53.17
2017-09-19T18:42:39.335Z,53.20
2017-09-19T18:46:43.192Z,53.17
2017-09-19T18:50:47.421Z,53.17
2017-09-19T18:54:52.042Z,53.16
2017-09-19T18:58:56.287Z,53.24
2017-09-19T19:03:00.195Z,53.20
2017-09-19T19:07:04.412Z,53.25
2017-09-19T19:11:09.064Z,53.24
2017-09-19T19:15:12.518Z,53.26
2017-09-19T19:19:16.380Z,53.24
2017-09-19T19:23:19.838Z,53.27
2017-09-19T19:27:23.715Z,53.27
2017-09-19T19:31:27.163Z,53.28
2017-09-19T19:35:31.024Z,53.30
2017-09-19T19:39:35.253Z,53.29
2017-09-19T19:43:39.163Z,53.31
2017-09-19T19:47:43.380Z,53.30
2017-09-19T19:51:48.019Z,53.33
2017-09-19T19:55:52.283Z,53.32
2017-09-19T19:59:56.085Z,53.31
2017-09-19T20:03:59.548Z,53.35
2017-09-19T20:08:03.259Z,53.34
2017-09-19T20:12:06.717Z,53.36
2017-09-19T20:16:10.511Z,53.34
2017-09-19T20:20:14.735Z,53.35
2017-09-19T20:24:19.231Z,53.36
2017-09-19T20:28:22.678Z,53.35
2017-09-19T20:32:26.575Z,53.36
2017-09-19T20:36:30.987Z,53.41
2017-09-19T20:40:34.740Z,53.40
2017-09-19T20:44:38.195Z,53.41
2017-09-19T20:48:42.031Z,53.42
2017-09-19T20:52:45.479Z,53.43
2017-09-19T20:56:49.266Z,53.41
2017-09-19T21:00:53.503Z,53.44
2017-09-19T21:05:02.865Z,53.44
2017-09-19T21:09:11.975Z,53.44
2017-09-19T21:13:21.948Z,53.45
2017-09-19T21:17:31.758Z,53.45
2017-09-19T21:21:35.620Z,53.44
2017-09-19T21:25:39.836Z,53.45
2017-09-19T21:29:44.376Z,53.46
2017-09-19T21:33:47.914Z,53.47
2017-09-19T21:37:51.707Z,53.45
2017-09-19T21:41:55.172Z,53.46
2017-09-19T21:45:59.739Z,53.48
2017-09-19T21:50:04.113Z,53.48
2017-09-19T21:54:07.879Z,53.47
2017-09-19T21:58:12.090Z,53.47
2017-09-19T22:02:15.919Z,53.46
2017-09-19T22:06:20.142Z,53.48
2017-09-19T22:10:24.775Z,53.46
2017-09-19T22:14:28.990Z,53.48
2017-09-19T22:18:33.806Z,53.49
2017-09-19T22:22:37.279Z,53.50
2017-09-19T22:26:41.057Z,53.49
2017-09-19T22:30:45.270Z,53.49
2017-09-19T22:34:49.115Z,53.49
2017-09-19T22:38:52.571Z,53.49
2017-09-19T22:42:56.468Z,53.48
2017-09-19T22:46:59.919Z,53.48
2017-09-19T22:51:03.765Z,53.49
2017-09-19T22:55:07.219Z,53.50
2017-09-19T22:59:11.080Z,53.49
2017-09-19T23:03:15.323Z,53.48
2017-09-19T23:07:19.111Z,53.49
2017-09-19T23:11:23.450Z,53.49
2017-09-19T23:15:27.979Z,53.47
2017-09-19T23:19:32.195Z,53.50
2017-09-19T23:23:36.846Z,53.48
2017-09-19T23:27:40.317Z,53.46
2017-09-19T23:31:44.072Z,53.46
2017-09-19T23:35:47.522Z,53.48
2017-09-19T23:39:51.296Z,53.48
2017-09-19T23:43:54.756Z,53.47
2017-09-19T23:47:58.503Z,53.46
2017-09-19T23:52:02.732Z,53.45
2017-09-19T23:56:06.544Z,53.46
